sensor_id;sensor_type;location;lat;lon;timestamp;temperature;humidity
11304;DHT22;5707;49.588;12.148;2023-03-31T00:01:39;7.50;99.90
11304;DHT22;5707;49.588;12.148;2023-03-31T00:04:08;7.40;99.90
11304;DHT22;5707;49.588;12.148;2023-03-31T00:06:37;7.30;99.90
11304;DHT22;5707;49.588;12.148;2023-03-31T00:09:04;7.20;99.90
11304;DHT22;5707;49.588;12.148;2023-03-31T00:11:30;7.30;99.90
11304;DHT22;5707;49.588;12.148;2023-03-31T00:13:56;7.30;99.90
11304;DHT22;5707;49.588;12.148;2023-03-31T00:16:21;7.20;99.90
11304;DHT22;5707;49.588;12.148;2023-03-31T00:18:47;7.20;99.90
11304;DHT22;5707;49.588;12.148;2023-03-31T00:21:17;7.20;99.90
11304;DHT22;5707;49.588;12.148;2023-03-31T00:23:52;7.10;99.90
11304;DHT22;5707;49.588;12.148;2023-03-31T00:26:17;6.90;99.90
11304;DHT22;5707;49.588;12.148;2023-03-31T00:28:43;6.70;99.90
11304;DHT22;5707;49.588;12.148;2023-03-31T00:31:09;6.60;99.90
11304;DHT22;5707;49.588;12.148;2023-03-31T00:33:34;6.40;99.90
11304;DHT22;5707;49.588;12.148;2023-03-31T00:36:00;6.30;99.90
11304;DHT22;5707;49.588;12.148;2023-03-31T00:38:27;6.20;99.90
11304;DHT22;5707;49.588;12.148;2023-03-31T00:40:53;6.00;99.90
11304;DHT22;5707;49.588;12.148;2023-03-31T00:43:35;5.90;99.90
11304;DHT22;5707;49.588;12.148;2023-03-31T00:46:17;6.00;99.90
11304;DHT22;5707;49.588;12.148;2023-03-31T00:48:49;6.10;99.90
11304;DHT22;5707;49.588;12.148;2023-03-31T00:51:17;6.30;99.90
11304;DHT22;5707;49.588;12.148;2023-03-31T00:53:46;6.30;99.90
11304;DHT22;5707;49.588;12.148;2023-03-31T00:56:16;6.20;99.90
11304;DHT22;5707;49.588;12.148;2023-03-31T00:58:43;6.30;99.90
11304;DHT22;5707;49.588;12.148;2023-03-31T01:01:12;6.60;99.90
11304;DHT22;5707;49.588;12.148;2023-03-31T01:03:41;6.70;99.90
11304;DHT22;5707;49.588;12.148;2023-03-31T01:06:07;6.70;99.90
11304;DHT22;5707;49.588;12.148;2023-03-31T01:08:36;6.80;99.90
11304;DHT22;5707;49.588;12.148;2023-03-31T01:11:05;6.90;99.90
11304;DHT22;5707;49.588;12.148;2023-03-31T01:13:33;7.00;99.90
11304;DHT22;5707;49.588;12.148;2023-03-31T01:15:59;7.00;99.90
11304;DHT22;5707;49.588;12.148;2023-03-31T01:18:25;7.20;99.90
11304;DHT22;5707;49.588;12.148;2023-03-31T01:24:08;7.20;99.90
11304;DHT22;5707;49.588;12.148;2023-03-31T01:26:51;7.20;99.90
11304;DHT22;5707;49.588;12.148;2023-03-31T01:41:14;7.10;99.90
11304;DHT22;5707;49.588;12.148;2023-03-31T01:46:31;7.10;99.90
11304;DHT22;5707;49.588;12.148;2023-03-31T01:49:19;7.10;99.90
11304;DHT22;5707;49.588;12.148;2023-03-31T01:52:02;7.00;99.90
11304;DHT22;5707;49.588;12.148;2023-03-31T02:02:38;7.10;99.90
11304;DHT22;5707;49.588;12.148;2023-03-31T02:05:10;7.00;99.90
11304;DHT22;5707;49.588;12.148;2023-03-31T02:07:45;7.00;99.90
11304;DHT22;5707;49.588;12.148;2023-03-31T02:10:13;7.00;99.90
11304;DHT22;5707;49.588;12.148;2023-03-31T02:12:42;6.90;99.90
11304;DHT22;5707;49.588;12.148;2023-03-31T02:15:11;6.90;99.90
11304;DHT22;5707;49.588;12.148;2023-03-31T02:17:39;6.70;99.90
11304;DHT22;5707;49.588;12.148;2023-03-31T02:20:09;6.60;99.90
11304;DHT22;5707;49.588;12.148;2023-03-31T02:22:42;6.50;99.90
11304;DHT22;5707;49.588;12.148;2023-03-31T02:25:12;6.40;99.90
11304;DHT22;5707;49.588;12.148;2023-03-31T02:27:42;6.30;99.90
11304;DHT22;5707;49.588;12.148;2023-03-31T02:30:11;6.30;99.90
11304;DHT22;5707;49.588;12.148;2023-03-31T02:32:40;6.20;99.90
11304;DHT22;5707;49.588;12.148;2023-03-31T02:35:13;6.20;99.90
11304;DHT22;5707;49.588;12.148;2023-03-31T02:37:40;6.10;99.90
11304;DHT22;5707;49.588;12.148;2023-03-31T02:40:10;6.20;99.90
11304;DHT22;5707;49.588;12.148;2023-03-31T02:42:38;6.20;99.90
11304;DHT22;5707;49.588;12.148;2023-03-31T02:45:32;6.20;99.90
11304;DHT22;5707;49.588;12.148;2023-03-31T02:47:51;6.20;99.90
11304;DHT22;5707;49.588;12.148;2023-03-31T02:50:20;6.20;99.90
11304;DHT22;5707;49.588;12.148;2023-03-31T02:53:02;6.20;99.90
11304;DHT22;5707;49.588;12.148;2023-03-31T02:56:03;6.20;99.90
11304;DHT22;5707;49.588;12.148;2023-03-31T03:04:07;6.20;99.90
11304;DHT22;5707;49.588;12.148;2023-03-31T03:06:48;6.30;99.90
11304;DHT22;5707;49.588;12.148;2023-03-31T03:09:52;6.30;99.90
11304;DHT22;5707;49.588;12.148;2023-03-31T03:12:48;6.40;99.90
11304;DHT22;5707;49.588;12.148;2023-03-31T03:15:23;6.50;99.90
11304;DHT22;5707;49.588;12.148;2023-03-31T03:17:50;6.60;99.90
11304;DHT22;5707;49.588;12.148;2023-03-31T03:20:18;6.70;99.90
11304;DHT22;5707;49.588;12.148;2023-03-31T03:22:44;6.80;99.90
11304;DHT22;5707;49.588;12.148;2023-03-31T03:25:12;6.80;99.90
11304;DHT22;5707;49.588;12.148;2023-03-31T03:27:38;6.90;99.90
11304;DHT22;5707;49.588;12.148;2023-03-31T03:30:06;6.90;99.90
11304;DHT22;5707;49.588;12.148;2023-03-31T03:32:32;6.90;99.90
11304;DHT22;5707;49.588;12.148;2023-03-31T03:34:59;7.00;99.90
11304;DHT22;5707;49.588;12.148;2023-03-31T03:37:25;7.00;99.90
11304;DHT22;5707;49.588;12.148;2023-03-31T03:39:50;7.00;99.90
11304;DHT22;5707;49.588;12.148;2023-03-31T03:42:16;7.00;99.90
11304;DHT22;5707;49.588;12.148;2023-03-31T03:44:41;7.00;99.90
11304;DHT22;5707;49.588;12.148;2023-03-31T03:47:07;7.00;99.90
11304;DHT22;5707;49.588;12.148;2023-03-31T03:49:33;7.00;99.90
11304;DHT22;5707;49.588;12.148;2023-03-31T03:51:59;7.00;99.90
11304;DHT22;5707;49.588;12.148;2023-03-31T03:54:24;7.00;99.90
11304;DHT22;5707;49.588;12.148;2023-03-31T03:56:50;7.10;99.90
11304;DHT22;5707;49.588;12.148;2023-03-31T03:59:15;7.10;99.90
11304;DHT22;5707;49.588;12.148;2023-03-31T04:01:41;7.10;99.90
11304;DHT22;5707;49.588;12.148;2023-03-31T04:04:06;7.10;99.90
11304;DHT22;5707;49.588;12.148;2023-03-31T04:06:32;7.10;99.90
11304;DHT22;5707;49.588;12.148;2023-03-31T04:08:58;7.00;99.90
11304;DHT22;5707;49.588;12.148;2023-03-31T04:11:23;6.90;99.90
11304;DHT22;5707;49.588;12.148;2023-03-31T04:13:49;6.80;99.90
11304;DHT22;5707;49.588;12.148;2023-03-31T04:16:14;6.70;99.90
11304;DHT22;5707;49.588;12.148;2023-03-31T04:18:41;6.70;99.90
11304;DHT22;5707;49.588;12.148;2023-03-31T04:21:12;6.70;99.90
11304;DHT22;5707;49.588;12.148;2023-03-31T04:23:41;6.60;99.90
11304;DHT22;5707;49.588;12.148;2023-03-31T04:26:14;6.60;99.90
11304;DHT22;5707;49.588;12.148;2023-03-31T04:28:39;6.70;99.90
11304;DHT22;5707;49.588;12.148;2023-03-31T04:31:10;6.80;99.90
11304;DHT22;5707;49.588;12.148;2023-03-31T04:33:40;6.80;99.90
11304;DHT22;5707;49.588;12.148;2023-03-31T04:36:06;6.90;99.90
11304;DHT22;5707;49.588;12.148;2023-03-31T04:38:45;6.90;99.90
11304;DHT22;5707;49.588;12.148;2023-03-31T04:41:21;7.00;99.90
11304;DHT22;5707;49.588;12.148;2023-03-31T04:43:47;7.00;99.90
11304;DHT22;5707;49.588;12.148;2023-03-31T04:46:12;7.00;99.90
11304;DHT22;5707;49.588;12.148;2023-03-31T04:48:38;7.10;99.90
11304;DHT22;5707;49.588;12.148;2023-03-31T04:51:04;7.10;99.90
11304;DHT22;5707;49.588;12.148;2023-03-31T04:53:30;7.10;99.90
11304;DHT22;5707;49.588;12.148;2023-03-31T04:55:56;7.10;99.90
11304;DHT22;5707;49.588;12.148;2023-03-31T04:58:22;7.00;99.90
11304;DHT22;5707;49.588;12.148;2023-03-31T05:00:48;7.00;99.90
11304;DHT22;5707;49.588;12.148;2023-03-31T05:03:13;7.10;99.90
11304;DHT22;5707;49.588;12.148;2023-03-31T05:05:39;7.10;99.90
11304;DHT22;5707;49.588;12.148;2023-03-31T05:08:05;7.10;99.90
11304;DHT22;5707;49.588;12.148;2023-03-31T05:10:30;7.10;99.90
11304;DHT22;5707;49.588;12.148;2023-03-31T05:12:56;7.20;99.90
11304;DHT22;5707;49.588;12.148;2023-03-31T05:15:22;7.20;99.90
11304;DHT22;5707;49.588;12.148;2023-03-31T05:17:51;7.20;99.90
11304;DHT22;5707;49.588;12.148;2023-03-31T05:20:18;7.20;99.90
11304;DHT22;5707;49.588;12.148;2023-03-31T05:22:44;7.20;99.90
11304;DHT22;5707;49.588;12.148;2023-03-31T05:25:11;7.20;99.90
11304;DHT22;5707;49.588;12.148;2023-03-31T05:27:45;7.30;99.90
11304;DHT22;5707;49.588;12.148;2023-03-31T05:30:14;7.30;99.90
11304;DHT22;5707;49.588;12.148;2023-03-31T05:32:40;7.40;99.90
11304;DHT22;5707;49.588;12.148;2023-03-31T05:35:06;7.50;99.90
11304;DHT22;5707;49.588;12.148;2023-03-31T05:37:32;7.50;99.90
11304;DHT22;5707;49.588;12.148;2023-03-31T05:39:58;7.60;99.90
11304;DHT22;5707;49.588;12.148;2023-03-31T05:42:23;7.60;99.90
11304;DHT22;5707;49.588;12.148;2023-03-31T05:44:49;7.70;99.90
11304;DHT22;5707;49.588;12.148;2023-03-31T05:47:15;7.70;99.90
11304;DHT22;5707;49.588;12.148;2023-03-31T05:49:40;7.70;99.90
11304;DHT22;5707;49.588;12.148;2023-03-31T05:52:06;7.60;99.90
11304;DHT22;5707;49.588;12.148;2023-03-31T05:54:32;7.60;99.90
11304;DHT22;5707;49.588;12.148;2023-03-31T05:56:58;7.60;99.90
11304;DHT22;5707;49.588;12.148;2023-03-31T05:59:24;7.60;99.90
11304;DHT22;5707;49.588;12.148;2023-03-31T06:01:49;7.50;99.90
11304;DHT22;5707;49.588;12.148;2023-03-31T06:04:15;7.50;99.90
11304;DHT22;5707;49.588;12.148;2023-03-31T06:06:40;7.50;99.90
11304;DHT22;5707;49.588;12.148;2023-03-31T06:09:07;7.50;99.90
11304;DHT22;5707;49.588;12.148;2023-03-31T06:11:33;7.50;99.90
11304;DHT22;5707;49.588;12.148;2023-03-31T06:13:58;7.40;99.90
11304;DHT22;5707;49.588;12.148;2023-03-31T06:16:24;7.40;99.90
11304;DHT22;5707;49.588;12.148;2023-03-31T06:18:50;7.40;99.90
11304;DHT22;5707;49.588;12.148;2023-03-31T06:21:18;7.40;99.90
11304;DHT22;5707;49.588;12.148;2023-03-31T06:23:44;7.50;99.90
11304;DHT22;5707;49.588;12.148;2023-03-31T06:26:12;7.60;99.90
11304;DHT22;5707;49.588;12.148;2023-03-31T06:28:39;7.60;99.90
11304;DHT22;5707;49.588;12.148;2023-03-31T06:31:07;7.60;99.90
11304;DHT22;5707;49.588;12.148;2023-03-31T06:33:34;7.60;99.90
11304;DHT22;5707;49.588;12.148;2023-03-31T06:36:00;7.60;99.90
11304;DHT22;5707;49.588;12.148;2023-03-31T06:38:28;7.70;99.90
11304;DHT22;5707;49.588;12.148;2023-03-31T06:40:54;7.80;99.90
11304;DHT22;5707;49.588;12.148;2023-03-31T06:43:20;7.80;99.90
11304;DHT22;5707;49.588;12.148;2023-03-31T06:45:46;7.90;99.90
11304;DHT22;5707;49.588;12.148;2023-03-31T06:48:12;7.80;99.90
11304;DHT22;5707;49.588;12.148;2023-03-31T06:50:39;7.80;99.90
11304;DHT22;5707;49.588;12.148;2023-03-31T06:53:06;7.80;99.90
11304;DHT22;5707;49.588;12.148;2023-03-31T06:55:32;7.80;99.90
11304;DHT22;5707;49.588;12.148;2023-03-31T06:57:58;7.90;99.90
11304;DHT22;5707;49.588;12.148;2023-03-31T07:00:24;7.90;99.90
11304;DHT22;5707;49.588;12.148;2023-03-31T07:02:51;8.00;99.90
11304;DHT22;5707;49.588;12.148;2023-03-31T07:05:17;8.10;99.90
11304;DHT22;5707;49.588;12.148;2023-03-31T07:07:43;8.20;99.90
11304;DHT22;5707;49.588;12.148;2023-03-31T07:10:09;8.20;99.90
11304;DHT22;5707;49.588;12.148;2023-03-31T07:12:35;8.30;99.90
11304;DHT22;5707;49.588;12.148;2023-03-31T07:15:00;8.30;99.90
11304;DHT22;5707;49.588;12.148;2023-03-31T07:17:26;8.30;99.90
11304;DHT22;5707;49.588;12.148;2023-03-31T07:19:52;8.20;99.90
11304;DHT22;5707;49.588;12.148;2023-03-31T07:22:17;8.20;99.90
11304;DHT22;5707;49.588;12.148;2023-03-31T07:24:43;8.20;99.90
11304;DHT22;5707;49.588;12.148;2023-03-31T07:27:08;8.10;99.90
11304;DHT22;5707;49.588;12.148;2023-03-31T07:29:34;8.10;99.90
11304;DHT22;5707;49.588;12.148;2023-03-31T07:31:59;8.10;99.90
11304;DHT22;5707;49.588;12.148;2023-03-31T07:34:25;8.20;99.90
11304;DHT22;5707;49.588;12.148;2023-03-31T07:36:54;8.20;99.90
11304;DHT22;5707;49.588;12.148;2023-03-31T07:39:20;8.30;99.90
11304;DHT22;5707;49.588;12.148;2023-03-31T07:41:47;8.30;99.90
11304;DHT22;5707;49.588;12.148;2023-03-31T07:44:13;8.40;99.90
11304;DHT22;5707;49.588;12.148;2023-03-31T07:46:40;8.40;99.90
11304;DHT22;5707;49.588;12.148;2023-03-31T07:49:05;8.40;99.90
11304;DHT22;5707;49.588;12.148;2023-03-31T07:51:32;8.40;99.90
11304;DHT22;5707;49.588;12.148;2023-03-31T07:53:58;8.50;99.90
11304;DHT22;5707;49.588;12.148;2023-03-31T07:56:24;8.50;99.90
11304;DHT22;5707;49.588;12.148;2023-03-31T07:58:50;8.60;99.90
11304;DHT22;5707;49.588;12.148;2023-03-31T08:01:19;8.60;99.90
11304;DHT22;5707;49.588;12.148;2023-03-31T08:03:46;8.60;99.90
11304;DHT22;5707;49.588;12.148;2023-03-31T08:06:18;8.70;99.90
11304;DHT22;5707;49.588;12.148;2023-03-31T08:08:44;8.70;99.90
11304;DHT22;5707;49.588;12.148;2023-03-31T08:11:10;8.80;99.90
11304;DHT22;5707;49.588;12.148;2023-03-31T08:13:35;8.90;99.90
11304;DHT22;5707;49.588;12.148;2023-03-31T08:16:01;8.90;99.90
11304;DHT22;5707;49.588;12.148;2023-03-31T08:18:27;9.00;99.90
11304;DHT22;5707;49.588;12.148;2023-03-31T08:20:53;9.10;99.90
11304;DHT22;5707;49.588;12.148;2023-03-31T08:23:18;9.30;99.90
11304;DHT22;5707;49.588;12.148;2023-03-31T08:25:44;9.40;99.90
11304;DHT22;5707;49.588;12.148;2023-03-31T08:28:10;9.50;99.90
11304;DHT22;5707;49.588;12.148;2023-03-31T08:30:38;9.50;99.90
11304;DHT22;5707;49.588;12.148;2023-03-31T08:33:05;9.70;99.90
11304;DHT22;5707;49.588;12.148;2023-03-31T08:35:35;9.80;99.90
11304;DHT22;5707;49.588;12.148;2023-03-31T08:38:00;10.00;99.90
11304;DHT22;5707;49.588;12.148;2023-03-31T08:40:27;10.20;99.90
11304;DHT22;5707;49.588;12.148;2023-03-31T08:42:59;10.30;99.90
11304;DHT22;5707;49.588;12.148;2023-03-31T08:45:34;10.20;99.90
11304;DHT22;5707;49.588;12.148;2023-03-31T08:48:06;9.90;99.90
11304;DHT22;5707;49.588;12.148;2023-03-31T08:50:42;9.70;99.90
11304;DHT22;5707;49.588;12.148;2023-03-31T08:53:20;9.60;99.90
11304;DHT22;5707;49.588;12.148;2023-03-31T08:55:51;9.50;99.90
11304;DHT22;5707;49.588;12.148;2023-03-31T09:09:46;9.00;99.90
11304;DHT22;5707;49.588;12.148;2023-03-31T09:12:42;9.00;99.90
11304;DHT22;5707;49.588;12.148;2023-03-31T09:15:54;8.90;99.90
11304;DHT22;5707;49.588;12.148;2023-03-31T09:18:12;8.80;99.90
11304;DHT22;5707;49.588;12.148;2023-03-31T09:20:45;8.90;99.90
11304;DHT22;5707;49.588;12.148;2023-03-31T09:23:42;8.90;99.90
11304;DHT22;5707;49.588;12.148;2023-03-31T09:26:19;8.90;99.90
11304;DHT22;5707;49.588;12.148;2023-03-31T09:28:47;8.90;99.90
11304;DHT22;5707;49.588;12.148;2023-03-31T09:31:15;9.00;99.90
11304;DHT22;5707;49.588;12.148;2023-03-31T09:33:44;9.10;99.90
11304;DHT22;5707;49.588;12.148;2023-03-31T09:36:16;9.10;99.90
11304;DHT22;5707;49.588;12.148;2023-03-31T09:38:43;9.20;99.90
11304;DHT22;5707;49.588;12.148;2023-03-31T09:41:10;9.20;99.90
11304;DHT22;5707;49.588;12.148;2023-03-31T09:43:39;9.10;99.90
11304;DHT22;5707;49.588;12.148;2023-03-31T09:46:15;9.20;99.90
11304;DHT22;5707;49.588;12.148;2023-03-31T09:51:33;10.10;99.90
11304;DHT22;5707;49.588;12.148;2023-03-31T09:54:24;10.70;99.90
11304;DHT22;5707;49.588;12.148;2023-03-31T09:56:53;11.20;99.90
11304;DHT22;5707;49.588;12.148;2023-03-31T09:59:21;11.50;99.90
11304;DHT22;5707;49.588;12.148;2023-03-31T10:01:52;12.00;99.90
11304;DHT22;5707;49.588;12.148;2023-03-31T10:04:26;12.40;99.90
11304;DHT22;5707;49.588;12.148;2023-03-31T10:06:53;12.40;99.90
11304;DHT22;5707;49.588;12.148;2023-03-31T10:09:27;12.40;99.90
11304;DHT22;5707;49.588;12.148;2023-03-31T10:12:01;12.00;99.90
11304;DHT22;5707;49.588;12.148;2023-03-31T10:14:47;11.90;99.90
11304;DHT22;5707;49.588;12.148;2023-03-31T10:17:15;11.60;99.90
11304;DHT22;5707;49.588;12.148;2023-03-31T10:19:58;11.30;99.90
11304;DHT22;5707;49.588;12.148;2023-03-31T10:22:31;10.90;99.90
11304;DHT22;5707;49.588;12.148;2023-03-31T10:25:19;10.70;99.90
11304;DHT22;5707;49.588;12.148;2023-03-31T10:27:51;10.40;99.90
11304;DHT22;5707;49.588;12.148;2023-03-31T10:30:25;10.60;99.90
11304;DHT22;5707;49.588;12.148;2023-03-31T10:32:51;11.30;99.90
11304;DHT22;5707;49.588;12.148;2023-03-31T10:35:30;12.20;99.90
11304;DHT22;5707;49.588;12.148;2023-03-31T10:38:00;12.90;99.90
11304;DHT22;5707;49.588;12.148;2023-03-31T10:40:29;13.30;99.90
11304;DHT22;5707;49.588;12.148;2023-03-31T10:43:20;13.50;99.90
11304;DHT22;5707;49.588;12.148;2023-03-31T10:45:51;13.70;99.90
11304;DHT22;5707;49.588;12.148;2023-03-31T10:48:33;13.50;99.90
11304;DHT22;5707;49.588;12.148;2023-03-31T10:53:29;13.10;99.90
11304;DHT22;5707;49.588;12.148;2023-03-31T10:59:11;13.10;99.90
11304;DHT22;5707;49.588;12.148;2023-03-31T11:02:19;12.90;99.90
11304;DHT22;5707;49.588;12.148;2023-03-31T11:05:22;12.50;99.90
11304;DHT22;5707;49.588;12.148;2023-03-31T11:08:10;12.10;99.90
11304;DHT22;5707;49.588;12.148;2023-03-31T11:10:33;11.90;99.90
11304;DHT22;5707;49.588;12.148;2023-03-31T11:13:10;11.70;99.90
11304;DHT22;5707;49.588;12.148;2023-03-31T11:15:48;11.60;99.90
11304;DHT22;5707;49.588;12.148;2023-03-31T11:21:24;11.20;99.90
11304;DHT22;5707;49.588;12.148;2023-03-31T11:27:04;10.90;99.90
11304;DHT22;5707;49.588;12.148;2023-03-31T11:29:57;11.20;99.90
11304;DHT22;5707;49.588;12.148;2023-03-31T11:32:39;12.20;99.90
11304;DHT22;5707;49.588;12.148;2023-03-31T11:41:19;13.70;99.90
11304;DHT22;5707;49.588;12.148;2023-03-31T11:43:55;13.60;99.90
11304;DHT22;5707;49.588;12.148;2023-03-31T11:46:38;13.70;99.90
11304;DHT22;5707;49.588;12.148;2023-03-31T11:49:16;13.80;99.90
11304;DHT22;5707;49.588;12.148;2023-03-31T11:52:06;14.10;99.90
11304;DHT22;5707;49.588;12.148;2023-03-31T11:54:52;14.80;99.90
11304;DHT22;5707;49.588;12.148;2023-03-31T11:57:39;15.40;99.90
11304;DHT22;5707;49.588;12.148;2023-03-31T12:00:16;16.10;99.90
11304;DHT22;5707;49.588;12.148;2023-03-31T12:02:58;16.40;99.90
11304;DHT22;5707;49.588;12.148;2023-03-31T12:05:27;16.60;99.90
11304;DHT22;5707;49.588;12.148;2023-03-31T12:09:02;16.30;99.90
11304;DHT22;5707;49.588;12.148;2023-03-31T12:11:15;15.90;99.90
11304;DHT22;5707;49.588;12.148;2023-03-31T12:14:20;15.60;99.90
11304;DHT22;5707;49.588;12.148;2023-03-31T12:17:09;15.60;99.90
11304;DHT22;5707;49.588;12.148;2023-03-31T12:19:53;15.40;99.90
11304;DHT22;5707;49.588;12.148;2023-03-31T12:22:31;15.20;99.90
11304;DHT22;5707;49.588;12.148;2023-03-31T12:24:59;14.60;99.90
11304;DHT22;5707;49.588;12.148;2023-03-31T12:27:44;13.70;99.90
11304;DHT22;5707;49.588;12.148;2023-03-31T12:32:53;12.50;99.90
11304;DHT22;5707;49.588;12.148;2023-03-31T12:38:16;12.40;99.90
11304;DHT22;5707;49.588;12.148;2023-03-31T12:40:45;12.50;99.90
11304;DHT22;5707;49.588;12.148;2023-03-31T12:43:26;12.20;99.90
11304;DHT22;5707;49.588;12.148;2023-03-31T12:48:37;11.00;99.90
11304;DHT22;5707;49.588;12.148;2023-03-31T12:59:34;8.80;99.90
11304;DHT22;5707;49.588;12.148;2023-03-31T13:04:41;8.10;99.90
11304;DHT22;5707;49.588;12.148;2023-03-31T13:12:37;8.30;99.90
11304;DHT22;5707;49.588;12.148;2023-03-31T13:15:04;8.60;99.90
11304;DHT22;5707;49.588;12.148;2023-03-31T13:17:32;9.00;99.90
11304;DHT22;5707;49.588;12.148;2023-03-31T13:20:30;9.30;99.90
11304;DHT22;5707;49.588;12.148;2023-03-31T13:23:02;9.70;99.90
11304;DHT22;5707;49.588;12.148;2023-03-31T13:27:54;10.60;99.90
11304;DHT22;5707;49.588;12.148;2023-03-31T13:33:50;11.60;99.90
11304;DHT22;5707;49.588;12.148;2023-03-31T13:36:18;11.70;99.90
11304;DHT22;5707;49.588;12.148;2023-03-31T13:39:13;11.60;99.90
11304;DHT22;5707;49.588;12.148;2023-03-31T13:42:00;11.50;99.90
11304;DHT22;5707;49.588;12.148;2023-03-31T13:45:09;11.60;99.90
11304;DHT22;5707;49.588;12.148;2023-03-31T13:48:02;11.80;99.90
11304;DHT22;5707;49.588;12.148;2023-03-31T13:50:41;11.90;99.90
11304;DHT22;5707;49.588;12.148;2023-03-31T13:56:44;12.60;99.90
11304;DHT22;5707;49.588;12.148;2023-03-31T14:09:59;11.80;99.90
11304;DHT22;5707;49.588;12.148;2023-03-31T14:14:56;10.20;99.90
11304;DHT22;5707;49.588;12.148;2023-03-31T14:17:36;9.50;99.90
11304;DHT22;5707;49.588;12.148;2023-03-31T14:20:31;9.10;99.90
11304;DHT22;5707;49.588;12.148;2023-03-31T14:28:34;9.00;99.90
11304;DHT22;5707;49.588;12.148;2023-03-31T14:39:32;10.10;99.90
11304;DHT22;5707;49.588;12.148;2023-03-31T14:42:03;10.10;99.90
11304;DHT22;5707;49.588;12.148;2023-03-31T14:44:32;10.20;99.90
11304;DHT22;5707;49.588;12.148;2023-03-31T14:46:57;10.30;99.90
11304;DHT22;5707;49.588;12.148;2023-03-31T14:49:28;10.40;99.90
11304;DHT22;5707;49.588;12.148;2023-03-31T14:51:59;10.60;99.90
11304;DHT22;5707;49.588;12.148;2023-03-31T14:54:25;10.90;99.90
11304;DHT22;5707;49.588;12.148;2023-03-31T14:56:55;11.10;99.90
11304;DHT22;5707;49.588;12.148;2023-03-31T14:59:33;11.20;99.90
11304;DHT22;5707;49.588;12.148;2023-03-31T15:02:01;11.30;99.90
11304;DHT22;5707;49.588;12.148;2023-03-31T15:04:29;11.00;99.90
11304;DHT22;5707;49.588;12.148;2023-03-31T15:06:58;10.80;99.90
11304;DHT22;5707;49.588;12.148;2023-03-31T15:09:29;10.80;99.90
11304;DHT22;5707;49.588;12.148;2023-03-31T15:11:59;10.90;99.90
11304;DHT22;5707;49.588;12.148;2023-03-31T15:14:30;10.90;99.90
11304;DHT22;5707;49.588;12.148;2023-03-31T15:16:58;11.10;99.90
11304;DHT22;5707;49.588;12.148;2023-03-31T15:19:28;11.20;99.90
11304;DHT22;5707;49.588;12.148;2023-03-31T15:21:56;11.30;99.90
11304;DHT22;5707;49.588;12.148;2023-03-31T15:24:22;11.50;99.90
11304;DHT22;5707;49.588;12.148;2023-03-31T15:26:56;11.60;99.90
11304;DHT22;5707;49.588;12.148;2023-03-31T15:31:57;11.40;99.90
11304;DHT22;5707;49.588;12.148;2023-03-31T15:34:31;11.40;99.90
11304;DHT22;5707;49.588;12.148;2023-03-31T15:36:58;11.20;99.90
11304;DHT22;5707;49.588;12.148;2023-03-31T15:39:27;11.20;99.90
11304;DHT22;5707;49.588;12.148;2023-03-31T15:41:55;11.30;99.90
11304;DHT22;5707;49.588;12.148;2023-03-31T15:44:44;11.40;99.90
11304;DHT22;5707;49.588;12.148;2023-03-31T15:47:27;11.30;99.90
11304;DHT22;5707;49.588;12.148;2023-03-31T15:50:11;11.20;99.90
11304;DHT22;5707;49.588;12.148;2023-03-31T15:52:45;11.10;99.90
11304;DHT22;5707;49.588;12.148;2023-03-31T15:55:39;11.00;99.90
11304;DHT22;5707;49.588;12.148;2023-03-31T15:58:14;10.90;99.90
11304;DHT22;5707;49.588;12.148;2023-03-31T16:00:49;10.70;99.90
11304;DHT22;5707;49.588;12.148;2023-03-31T16:03:17;10.60;99.90
11304;DHT22;5707;49.588;12.148;2023-03-31T16:08:27;10.50;99.90
11304;DHT22;5707;49.588;12.148;2023-03-31T16:11:00;10.40;99.90
11304;DHT22;5707;49.588;12.148;2023-03-31T16:13:29;10.30;99.90
11304;DHT22;5707;49.588;12.148;2023-03-31T16:15:56;10.10;99.90
11304;DHT22;5707;49.588;12.148;2023-03-31T16:18:37;10.10;99.90
11304;DHT22;5707;49.588;12.148;2023-03-31T16:21:06;10.00;99.90
11304;DHT22;5707;49.588;12.148;2023-03-31T16:23:35;9.80;99.90
11304;DHT22;5707;49.588;12.148;2023-03-31T16:26:03;9.60;99.90
11304;DHT22;5707;49.588;12.148;2023-03-31T16:28:32;9.50;99.90
11304;DHT22;5707;49.588;12.148;2023-03-31T16:30:58;9.60;99.90
11304;DHT22;5707;49.588;12.148;2023-03-31T16:33:27;9.90;99.90
11304;DHT22;5707;49.588;12.148;2023-03-31T16:35:54;10.40;99.90
11304;DHT22;5707;49.588;12.148;2023-03-31T16:38:24;10.70;99.90
11304;DHT22;5707;49.588;12.148;2023-03-31T16:40:55;10.90;99.90
11304;DHT22;5707;49.588;12.148;2023-03-31T16:43:26;11.00;99.90
11304;DHT22;5707;49.588;12.148;2023-03-31T16:45:54;10.90;99.90
11304;DHT22;5707;49.588;12.148;2023-03-31T16:48:21;10.60;99.90
11304;DHT22;5707;49.588;12.148;2023-03-31T16:50:49;10.40;99.90
11304;DHT22;5707;49.588;12.148;2023-03-31T16:53:20;10.30;99.90
11304;DHT22;5707;49.588;12.148;2023-03-31T16:55:47;10.20;99.90
11304;DHT22;5707;49.588;12.148;2023-03-31T16:58:13;10.10;99.90
11304;DHT22;5707;49.588;12.148;2023-03-31T17:00:39;10.10;99.90
11304;DHT22;5707;49.588;12.148;2023-03-31T17:03:07;10.00;99.90
11304;DHT22;5707;49.588;12.148;2023-03-31T17:05:51;9.90;99.90
11304;DHT22;5707;49.588;12.148;2023-03-31T17:08:20;9.70;99.90
11304;DHT22;5707;49.588;12.148;2023-03-31T17:10:54;9.40;99.90
11304;DHT22;5707;49.588;12.148;2023-03-31T17:13:21;9.20;99.90
11304;DHT22;5707;49.588;12.148;2023-03-31T17:15:47;9.10;99.90
11304;DHT22;5707;49.588;12.148;2023-03-31T17:18:13;9.10;99.90
11304;DHT22;5707;49.588;12.148;2023-03-31T17:20:39;9.10;99.90
11304;DHT22;5707;49.588;12.148;2023-03-31T17:23:04;9.10;99.90
11304;DHT22;5707;49.588;12.148;2023-03-31T17:25:30;9.10;99.90
11304;DHT22;5707;49.588;12.148;2023-03-31T17:27:56;9.10;99.90
11304;DHT22;5707;49.588;12.148;2023-03-31T17:30:24;9.20;99.90
11304;DHT22;5707;49.588;12.148;2023-03-31T17:32:50;9.20;99.90
11304;DHT22;5707;49.588;12.148;2023-03-31T17:35:15;9.20;99.90
11304;DHT22;5707;49.588;12.148;2023-03-31T17:37:46;9.10;99.90
11304;DHT22;5707;49.588;12.148;2023-03-31T17:40:14;9.00;99.90
11304;DHT22;5707;49.588;12.148;2023-03-31T17:42:39;8.80;99.90
11304;DHT22;5707;49.588;12.148;2023-03-31T17:45:05;8.60;99.90
11304;DHT22;5707;49.588;12.148;2023-03-31T17:47:31;8.60;99.90
11304;DHT22;5707;49.588;12.148;2023-03-31T17:49:57;8.60;99.90
11304;DHT22;5707;49.588;12.148;2023-03-31T17:52:23;8.60;99.90
11304;DHT22;5707;49.588;12.148;2023-03-31T17:54:49;8.70;99.90
11304;DHT22;5707;49.588;12.148;2023-03-31T17:57:14;8.70;99.90
11304;DHT22;5707;49.588;12.148;2023-03-31T17:59:41;8.70;99.90
11304;DHT22;5707;49.588;12.148;2023-03-31T18:02:06;8.70;99.90
11304;DHT22;5707;49.588;12.148;2023-03-31T18:04:32;8.60;99.90
11304;DHT22;5707;49.588;12.148;2023-03-31T18:06:58;8.60;99.90
11304;DHT22;5707;49.588;12.148;2023-03-31T18:09:24;8.60;99.90
11304;DHT22;5707;49.588;12.148;2023-03-31T18:11:50;8.40;99.90
11304;DHT22;5707;49.588;12.148;2023-03-31T18:14:16;8.30;99.90